Time;durP1;ratioP1;P1;durP2;ratioP2;P2;SDS_P1;SDS_P2;PMS_P1;PMS_P2;Temp;Humidity;BMP_temperature;BMP_pressure;BME280_temperature;BME280_humidity;BME280_pressure;Samples;Min_cycle;Max_cycle;Signal;HPM_P1;HPM_P2
2021/04/05 00:01:03;;;;;;;1.65;1.52;;;6.60;99.90;;;;;;5094851;28;20510;-76
2021/04/05 00:03:29;;;;;;;0.60;0.60;;;6.40;99.90;;;;;;5094747;28;20177;-77
2021/04/05 00:05:55;;;;;;;1.02;0.93;;;6.40;99.90;;;;;;5093234;28;20274;-77
2021/04/05 00:08:20;;;;;;;0.60;0.60;;;6.30;99.90;;;;;;5094470;28;20645;-77
2021/04/05 00:10:52;;;;;;;1.67;1.58;;;6.40;99.90;;;;;;5094619;28;20160;-76
2021/04/05 00:13:26;;;;;;;3.60;2.20;;;6.40;99.90;;;;;;5094598;28;20249;-76
2021/04/05 00:15:53;;;;;;;4.75;2.53;;;6.30;99.90;;;;;;5094377;28;20188;-76
2021/04/05 00:18:21;;;;;;;3.28;2.42;;;6.30;99.90;;;;;;5094421;28;20162;-77
2021/04/05 00:20:53;;;;;;;1.35;1.23;;;6.40;99.90;;;;;;5094527;28;20203;-76
2021/04/05 00:23:19;;;;;;;2.38;0.82;;;6.40;99.90;;;;;;5094369;28;20257;-77
2021/04/05 00:25:44;;;;;;;0.93;0.70;;;6.30;99.90;;;;;;5093987;28;20316;-76
2021/04/05 00:28:11;;;;;;;8.25;2.25;;;6.20;99.90;;;;;;5094290;28;20254;-76
2021/04/05 00:30:38;;;;;;;3.63;2.13;;;6.10;99.90;;;;;;5094054;28;20157;-76
2021/04/05 00:33:04;;;;;;;1.67;1.58;;;6.10;99.90;;;;;;5094245;28;20223;-77
2021/04/05 00:35:34;;;;;;;4.80;1.20;;;6.10;99.90;;;;;;5092659;28;20186;-76
2021/04/05 00:38:02;;;;;;;0.98;0.98;;;6.00;99.90;;;;;;5092800;28;20158;-76
2021/04/05 00:40:57;;;;;;;3.60;1.38;;;5.90;99.90;;;;;;5094012;28;20162;-76
2021/04/05 00:43:23;;;;;;;0.95;0.95;;;6.00;99.90;;;;;;5093325;28;20178;-76
2021/04/05 00:45:49;;;;;;;5.95;2.03;;;6.00;99.90;;;;;;5093901;28;20196;-76
2021/04/05 00:48:16;;;;;;;0.68;0.68;;;6.00;99.90;;;;;;5093956;28;20239;-76
2021/04/05 00:50:58;;;;;;;0.70;0.70;;;6.00;99.90;;;;;;5093613;28;20150;-76
2021/04/05 00:53:39;;;;;;;4.82;2.05;;;5.90;99.90;;;;;;5093719;28;20207;-76
2021/04/05 00:56:06;;;;;;;1.20;1.13;;;6.00;99.90;;;;;;5091943;28;20186;-77
2021/04/05 00:58:32;;;;;;;1.65;0.70;;;5.90;99.90;;;;;;5093731;28;20215;-77
2021/04/05 01:01:01;;;;;;;3.55;2.63;;;5.90;99.90;;;;;;5093951;28;20150;-76
2021/04/05 01:03:28;;;;;;;0.47;0.47;;;5.90;99.90;;;;;;5093733;28;20211;-76
2021/04/05 01:05:56;;;;;;;2.28;0.93;;;5.90;99.90;;;;;;5093418;28;20238;-76
2021/04/05 01:08:22;;;;;;;0.73;0.73;;;5.90;99.90;;;;;;5093649;28;20170;-76
2021/04/05 01:10:48;;;;;;;2.70;1.42;;;6.00;99.90;;;;;;5093504;28;20509;-77
2021/04/05 01:13:14;;;;;;;2.03;1.58;;;5.90;99.90;;;;;;5093468;28;20215;-76
2021/04/05 01:15:40;;;;;;;2.80;1.52;;;5.80;99.90;;;;;;5093549;28;20235;-77
2021/04/05 01:18:06;;;;;;;5.78;2.47;;;5.80;99.90;;;;;;5091812;28;20162;-76
2021/04/05 01:20:32;;;;;;;0.75;0.75;;;5.80;99.90;;;;;;5091992;28;20686;-76
2021/04/05 01:22:59;;;;;;;1.60;1.33;;;5.80;99.90;;;;;;5093373;28;20170;-77
2021/04/05 01:25:25;;;;;;;0.57;0.57;;;5.80;99.90;;;;;;5093161;28;20655;-77
2021/04/05 01:27:55;;;;;;;3.40;1.75;;;5.80;99.90;;;;;;5091965;28;20235;-76
2021/04/05 01:30:31;;;;;;;0.88;0.88;;;5.70;99.90;;;;;;5093335;28;20169;-76
2021/04/05 01:33:22;;;;;;;6.45;1.27;;;5.70;99.90;;;;;;5093282;28;20169;-76
2021/04/05 01:36:13;;;;;;;1.40;1.30;;;5.60;99.90;;;;;;5093150;28;20674;-77
2021/04/05 01:38:44;;;;;;;0.85;0.85;;;5.50;99.90;;;;;;5092601;28;20594;-76
2021/04/05 01:41:11;;;;;;;0.80;0.80;;;5.60;99.90;;;;;;5092021;28;20162;-76
2021/04/05 01:43:38;;;;;;;7.65;1.92;;;5.60;99.90;;;;;;5093108;28;20162;-77
2021/04/05 01:46:06;;;;;;;1.33;1.33;;;5.50;99.90;;;;;;5093031;28;20208;-76
2021/04/05 01:48:32;;;;;;;13.07;2.95;;;5.60;99.90;;;;;;5093076;28;20170;-76
2021/04/05 01:51:01;;;;;;;1.35;0.93;;;5.60;99.90;;;;;;5093156;28;20161;-76
2021/04/05 01:53:27;;;;;;;1.42;0.98;;;5.60;99.90;;;;;;5092992;28;20505;-76
2021/04/05 01:55:53;;;;;;;3.17;0.93;;;5.60;99.90;;;;;;5091639;28;20520;-76
2021/04/05 01:58:19;;;;;;;1.48;1.38;;;5.60;99.90;;;;;;5093163;28;20211;-76
2021/04/05 02:00:47;;;;;;;0.75;0.75;;;5.50;99.90;;;;;;5092946;28;20196;-77
2021/04/05 02:03:14;;;;;;;1.48;1.23;;;5.60;99.90;;;;;;5092935;28;20205;-77
2021/04/05 02:05:55;;;;;;;5.13;1.77;;;5.50;99.90;;;;;;5092841;28;20217;-76
2021/04/05 02:08:25;;;;;;;1.38;1.27;;;5.50;99.90;;;;;;5092993;28;20177;-76
2021/04/05 02:10:53;;;;;;;0.95;0.95;;;5.40;99.90;;;;;;5092865;28;20242;-76
2021/04/05 02:13:20;;;;;;;2.55;1.55;;;5.60;99.90;;;;;;5092919;28;20192;-76
2021/04/05 02:15:47;;;;;;;1.65;0.50;;;5.50;99.90;;;;;;5092802;28;20186;-76
2021/04/05 02:18:13;;;;;;;6.50;1.83;;;5.50;99.90;;;;;;5092897;28;20550;-76
2021/04/05 02:20:40;;;;;;;2.67;2.45;;;5.50;99.90;;;;;;5092903;28;20231;-76
2021/04/05 02:23:06;;;;;;;0.90;0.90;;;5.60;99.90;;;;;;5092721;28;20158;-76
2021/04/05 02:25:33;;;;;;;2.85;2.65;;;5.60;99.90;;;;;;5092597;28;20225;-77
2021/04/05 02:28:00;;;;;;;40.30;1.17;;;5.60;99.90;;;;;;5091493;28;20174;-76
2021/04/05 02:30:28;;;;;;;1.35;1.35;;;5.70;99.90;;;;;;5094593;28;20158;-76
2021/04/05 02:33:01;;;;;;;4.85;2.63;;;5.70;99.90;;;;;;5096555;28;20162;-76
2021/04/05 02:35:29;;;;;;;2.53;2.30;;;5.80;99.90;;;;;;5095097;28;20194;-77
2021/04/05 02:37:58;;;;;;;2.20;2.10;;;5.90;99.90;;;;;;5096400;28;20510;-76
2021/04/05 02:40:24;;;;;;;5.03;2.28;;;5.90;99.90;;;;;;5096383;28;20162;-76
2021/04/05 02:42:51;;;;;;;1.90;1.80;;;6.10;99.90;;;;;;5096265;28;20223;-76
2021/04/05 02:45:19;;;;;;;2.03;1.02;;;6.20;99.90;;;;;;5096204;28;20166;-76
2021/04/05 02:47:46;;;;;;;1.58;1.48;;;6.30;99.90;;;;;;5094948;28;20223;-76
2021/04/05 02:50:13;;;;;;;12.02;4.47;;;6.10;99.90;;;;;;5096186;28;20158;-76
2021/04/05 02:52:40;;;;;;;0.70;0.70;;;6.20;99.90;;;;;;5096098;28;20170;-76
2021/04/05 02:55:09;;;;;;;1.30;1.30;;;6.30;99.90;;;;;;5096274;28;20193;-76
2021/04/05 02:57:42;;;;;;;1.83;1.73;;;6.30;99.90;;;;;;5096003;28;20162;-76
2021/04/05 03:00:11;;;;;;;1.55;1.35;;;6.40;99.90;;;;;;5095983;28;20162;-76
2021/04/05 03:02:41;;;;;;;0.50;0.50;;;6.40;99.90;;;;;;5095868;28;20216;-76
2021/04/05 03:05:08;;;;;;;3.28;2.38;;;6.40;99.90;;;;;;5095795;28;20154;-76
2021/04/05 03:07:35;;;;;;;0.98;0.90;;;6.40;99.90;;;;;;5095876;28;20202;-76
2021/04/05 03:10:08;;;;;;;4.93;2.63;;;6.50;99.90;;;;;;5095844;28;20154;-76
2021/04/05 03:12:36;;;;;;;4.22;3.92;;;6.50;99.90;;;;;;5095770;28;20219;-76
2021/04/05 03:15:13;;;;;;;2.13;2.03;;;6.50;99.90;;;;;;5095626;28;20166;-76
2021/04/05 03:17:40;;;;;;;4.97;3.63;;;6.60;99.90;;;;;;5095622;28;20158;-77
2021/04/05 03:20:13;;;;;;;2.60;1.98;;;6.70;99.90;;;;;;5095550;28;20307;-77
2021/04/05 03:22:41;;;;;;;0.85;0.85;;;6.70;99.90;;;;;;5095642;28;20162;-77
2021/04/05 03:25:22;;;;;;;1.30;1.30;;;6.80;99.90;;;;;;5095290;28;20264;-77
2021/04/05 03:27:50;;;;;;;1.75;1.65;;;6.90;99.90;;;;;;5094197;28;20304;-76
2021/04/05 03:30:21;;;;;;;6.55;2.53;;;6.80;99.90;;;;;;5095319;28;20158;-76
2021/04/05 03:32:50;;;;;;;6.53;3.97;;;6.60;99.90;;;;;;5095389;28;20640;-77
2021/04/05 03:35:21;;;;;;;7.43;2.35;;;6.70;99.90;;;;;;5093933;28;20524;-77
2021/04/05 03:37:48;;;;;;;2.38;1.92;;;6.80;99.90;;;;;;5095516;28;20553;-77
2021/04/05 03:40:14;;;;;;;5.28;4.05;;;6.90;99.90;;;;;;5095214;28;20162;-77
2021/04/05 03:42:54;;;;;;;2.13;1.60;;;6.90;99.90;;;;;;5094651;28;20614;-77
2021/04/05 03:45:25;;;;;;;2.95;2.13;;;7.00;99.90;;;;;;5095084;28;20168;-77
2021/04/05 03:48:04;;;;;;;7.35;2.42;;;6.80;99.90;;;;;;5095084;28;20197;-76
2021/04/05 03:51:08;;;;;;;4.65;2.58;;;6.80;99.90;;;;;;5095054;28;20236;-77
2021/04/05 03:53:54;;;;;;;1.33;1.23;;;6.80;99.90;;;;;;5094825;28;20174;-77
2021/04/05 03:56:24;;;;;;;0.30;0.30;;;6.80;99.90;;;;;;5094839;28;20220;-77
2021/04/05 03:58:54;;;;;;;1.90;1.80;;;6.90;99.90;;;;;;5093537;28;20248;-77
2021/04/05 04:01:28;;;;;;;11.35;2.55;;;7.00;99.90;;;;;;5094801;28;20164;-77
2021/04/05 04:04:08;;;;;;;3.30;3.00;;;7.00;99.90;;;;;;5094706;28;20162;-76
2021/04/05 04:09:27;;;;;;;2.28;2.17;;;7.00;99.90;;;;;;5085853;28;20178;-76
2021/04/05 04:11:56;;;;;;;7.72;6.18;;;7.00;99.90;;;;;;5093234;28;20219;-77
2021/04/05 04:14:22;;;;;;;0.70;0.70;;;7.10;99.90;;;;;;5094560;28;20165;-77
2021/04/05 04:16:49;;;;;;;2.15;2.05;;;7.30;99.90;;;;;;5094145;28;20185;-77
2021/04/05 04:19:16;;;;;;;2.30;2.17;;;7.20;99.90;;;;;;5094289;28;20177;-77
2021/04/05 04:21:44;;;;;;;3.25;3.05;;;7.20;99.90;;;;;;5094343;28;20191;-77
2021/04/05 04:24:10;;;;;;;4.95;3.00;;;7.20;99.90;;;;;;5094255;28;20245;-77
2021/04/05 04:26:36;;;;;;;2.22;1.83;;;7.10;99.90;;;;;;5093885;28;20213;-77
2021/04/05 04:29:11;;;;;;;0.88;0.82;;;7.00;99.90;;;;;;5092883;28;20533;-76
2021/04/05 04:31:37;;;;;;;9.80;2.75;;;7.00;99.90;;;;;;5093981;28;20174;-77
2021/04/05 04:34:02;;;;;;;4.60;3.03;;;7.00;99.90;;;;;;5094153;28;20666;-77
2021/04/05 04:36:28;;;;;;;4.32;3.38;;;7.10;99.90;;;;;;5093881;28;20189;-77
2021/04/05 04:38:55;;;;;;;2.63;2.42;;;7.20;99.90;;;;;;5093975;28;20166;-76
2021/04/05 04:41:22;;;;;;;2.63;2.40;;;7.10;99.90;;;;;;5092634;28;20617;-77
2021/04/05 04:43:59;;;;;;;4.35;2.83;;;7.10;99.90;;;;;;5094013;28;20179;-77
2021/04/05 04:46:25;;;;;;;2.20;2.00;;;7.10;99.90;;;;;;5093753;28;20342;-77
2021/04/05 04:49:01;;;;;;;6.45;1.85;;;7.20;99.90;;;;;;5093879;28;20654;-77
2021/04/05 04:51:28;;;;;;;7.25;2.88;;;7.20;99.90;;;;;;5093601;28;20161;-77
2021/04/05 04:53:59;;;;;;;3.55;3.25;;;7.30;99.90;;;;;;5092774;28;20652;-76
2021/04/05 04:56:25;;;;;;;1.58;1.48;;;7.40;99.90;;;;;;5093699;28;20330;-77
2021/04/05 04:58:51;;;;;;;1.52;1.42;;;7.40;99.90;;;;;;5093833;28;20174;-77
2021/04/05 05:01:17;;;;;;;10.55;1.98;;;7.40;99.90;;;;;;5093932;28;20165;-77
2021/04/05 05:04:15;;;;;;;2.53;1.45;;;7.50;99.90;;;;;;5093548;28;20158;-77
2021/04/05 05:06:42;;;;;;;4.05;2.28;;;7.50;99.90;;;;;;5092698;28;20216;-76
2021/04/05 05:09:09;;;;;;;4.68;2.22;;;7.50;99.90;;;;;;5093565;28;20162;-77
2021/04/05 05:11:35;;;;;;;2.75;2.28;;;7.50;99.90;;;;;;5093618;28;20217;-76
2021/04/05 05:14:01;;;;;;;4.30;1.73;;;7.50;99.90;;;;;;5093501;28;20158;-77
2021/04/05 05:16:27;;;;;;;2.45;2.25;;;7.60;99.90;;;;;;5093390;28;20174;-77
2021/04/05 05:18:57;;;;;;;18.95;1.60;;;7.60;99.90;;;;;;5093266;28;20173;-77
2021/04/05 05:21:45;;;;;;;2.75;2.58;;;7.70;99.90;;;;;;5093418;28;20162;-77
2021/04/05 05:24:15;;;;;;;3.30;1.83;;;7.70;99.90;;;;;;5093278;28;20492;-78
2021/04/05 05:26:42;;;;;;;1.40;1.38;;;7.80;99.90;;;;;;5092857;28;20229;-78
2021/04/05 05:29:11;;;;;;;0.68;0.68;;;7.80;99.90;;;;;;5106732;23;20248;-75
2021/04/05 05:31:39;;;;;;;2.15;2.00;;;7.70;99.90;;;;;;5051189;28;20179;-76
2021/04/05 05:34:07;;;;;;;3.03;1.83;;;7.90;99.90;;;;;;5053630;28;20166;-75
2021/04/05 05:36:33;;;;;;;3.85;1.80;;;7.80;99.90;;;;;;5054436;28;20670;-76
2021/04/05 05:39:00;;;;;;;3.00;2.15;;;7.90;99.90;;;;;;5053692;28;20167;-76
2021/04/05 05:41:54;;;;;;;1.92;1.75;;;8.10;99.90;;;;;;5053418;28;20281;-76
2021/04/05 05:44:25;;;;;;;10.23;2.13;;;8.00;99.90;;;;;;5052594;28;20209;-76
2021/04/05 05:47:02;;;;;;;2.97;1.85;;;8.00;99.90;;;;;;5052067;28;20205;-76
2021/04/05 05:50:00;;;;;;;9.43;3.40;;;8.00;99.90;;;;;;5053347;28;20202;-76
2021/04/05 05:53:04;;;;;;;15.57;3.72;;;8.00;99.90;;;;;;5052873;28;20182;-76
2021/04/05 05:55:56;;;;;;;4.82;2.30;;;8.00;99.90;;;;;;5016458;28;20208;-76
2021/04/05 05:58:41;;;;;;;2.38;2.17;;;8.00;99.90;;;;;;5024368;28;20631;-75
2021/04/05 06:01:40;;;;;;;5.07;3.30;;;8.10;99.90;;;;;;5052754;28;20155;-76
2021/04/05 06:04:18;;;;;;;2.97;1.90;;;8.10;99.90;;;;;;5052822;28;20163;-77
2021/04/05 06:07:02;;;;;;;1.13;1.13;;;8.00;99.90;;;;;;5056522;28;20669;-76
2021/04/05 06:09:53;;;;;;;4.38;3.85;;;8.00;99.90;;;;;;5059226;28;20171;-76
2021/04/05 06:12:55;;;;;;;1.70;1.60;;;8.10;99.90;;;;;;5059559;28;20182;-76
2021/04/05 06:15:25;;;;;;;2.22;1.88;;;8.20;99.90;;;;;;5058785;28;20175;-77
2021/04/05 06:18:28;;;;;;;30.65;2.13;;;8.40;99.90;;;;;;5062835;28;20516;-76
2021/04/05 06:21:21;;;;;;;1.80;1.70;;;8.40;99.90;;;;;;5056482;28;20167;-78
2021/04/05 06:23:51;;;;;;;1.75;1.65;;;8.60;99.90;;;;;;5056287;28;20247;-76
2021/04/05 06:26:41;;;;;;;4.05;1.45;;;8.60;99.90;;;;;;5060108;28;20195;-77
2021/04/05 06:29:34;;;;;;;0.50;0.50;;;8.60;99.90;;;;;;5057909;28;20183;-76
2021/04/05 06:32:15;;;;;;;5.82;3.10;;;8.60;99.90;;;;;;5056272;28;20221;-76
2021/04/05 06:35:03;;;;;;;7.95;2.60;;;8.70;99.90;;;;;;5063434;28;20526;-75
2021/04/05 06:37:56;;;;;;;4.05;1.23;;;8.80;99.90;;;;;;5055826;28;20156;-74
2021/04/05 06:40:24;;;;;;;1.73;1.45;;;8.80;99.90;;;;;;5059193;28;20190;-75
2021/04/05 06:43:17;;;;;;;1.15;1.13;;;8.80;99.90;;;;;;5056102;28;20164;-75
2021/04/05 06:46:01;;;;;;;1.60;1.50;;;8.70;99.90;;;;;;5054994;28;20198;-75
2021/04/05 06:48:48;;;;;;;1.65;1.30;;;8.80;99.90;;;;;;5065624;28;20183;-75
2021/04/05 06:51:51;;;;;;;3.80;2.08;;;8.90;99.90;;;;;;5076159;28;20155;-75
2021/04/05 06:54:53;;;;;;;0.77;0.77;;;8.90;99.90;;;;;;5076331;28;20166;-76
2021/04/05 06:58:01;;;;;;;2.88;1.92;;;8.90;99.90;;;;;;5075795;28;20198;-76
2021/04/05 07:01:00;;;;;;;1.10;1.10;;;9.00;99.90;;;;;;5054639;28;20191;-75
2021/04/05 07:04:02;;;;;;;0.95;0.95;;;9.10;99.90;;;;;;5075815;28;20170;-76
2021/04/05 07:06:38;;;;;;;3.88;1.35;;;9.00;99.90;;;;;;5075323;28;20230;-76
2021/04/05 07:09:17;;;;;;;1.27;1.27;;;8.90;99.90;;;;;;5066777;28;20633;-76
2021/04/05 07:12:19;;;;;;;10.82;2.53;;;8.80;99.90;;;;;;5056397;28;20155;-75
2021/04/05 07:15:12;;;;;;;4.18;1.85;;;8.90;99.90;;;;;;5056237;28;20204;-76
2021/04/05 07:17:56;;;;;;;0.85;0.85;;;8.90;99.90;;;;;;5054786;28;20207;-76
2021/04/05 07:20:44;;;;;;;0.80;0.80;;;8.80;99.90;;;;;;5055439;28;20155;-76
2021/04/05 07:23:24;;;;;;;1.65;0.98;;;8.80;99.90;;;;;;5055422;28;20163;-76
2021/04/05 07:26:23;;;;;;;3.25;2.83;;;8.80;99.90;;;;;;5063805;28;20194;-75
2021/04/05 07:29:24;;;;;;;0.47;0.47;;;8.70;99.90;;;;;;5059693;28;20188;-75
2021/04/05 07:32:08;;;;;;;0.38;0.38;;;8.10;99.90;;;;;;5054416;28;20211;-75
2021/04/05 07:35:03;;;;;;;0.30;0.30;;;7.90;99.90;;;;;;5055635;28;20168;-76
2021/04/05 07:38:01;;;;;;;0.45;0.45;;;7.80;99.90;;;;;;5055226;28;20155;-76
2021/04/05 07:41:05;;;;;;;1.50;1.45;;;7.80;99.90;;;;;;5054973;28;20179;-76
2021/04/05 07:43:51;;;;;;;0.52;0.52;;;7.90;99.90;;;;;;5055153;28;20254;-76
2021/04/05 07:46:47;;;;;;;0.60;0.60;;;7.70;99.90;;;;;;5054864;28;20191;-77
2021/04/05 07:49:27;;;;;;;0.50;0.35;;;7.70;99.90;;;;;;5055114;28;20178;-77
2021/04/05 07:52:00;;;;;;;4.38;1.23;;;7.80;99.90;;;;;;5055073;28;20159;-77
2021/04/05 07:54:34;;;;;;;0.40;0.40;;;7.80;99.90;;;;;;5053607;28;20654;-77
2021/04/05 07:57:19;;;;;;;0.50;0.50;;;7.90;99.90;;;;;;5054928;28;20540;-78
2021/04/05 08:00:06;;;;;;;0.73;0.40;;;7.90;99.90;;;;;;5055194;28;20167;-77
2021/04/05 08:02:56;;;;;;;0.55;0.55;;;7.90;99.90;;;;;;5054812;28;20597;-78
2021/04/05 08:05:35;;;;;;;0.20;0.20;;;7.80;99.90;;;;;;5053388;28;20167;-78
2021/04/05 08:08:19;;;;;;;0.25;0.25;;;7.70;99.90;;;;;;5054517;28;20199;-78
2021/04/05 08:10:50;;;;;;;1.15;0.95;;;7.60;99.90;;;;;;5055062;28;20151;-76
2021/04/05 08:13:45;;;;;;;0.35;0.35;;;7.60;99.90;;;;;;5054627;28;20225;-76
2021/04/05 08:16:21;;;;;;;0.60;0.60;;;7.50;99.90;;;;;;5054490;28;20270;-76
2021/04/05 08:18:53;;;;;;;0.60;0.40;;;7.40;99.90;;;;;;5054473;28;20170;-76
2021/04/05 08:21:29;;;;;;;0.30;0.30;;;7.30;99.90;;;;;;5054330;28;20163;-77
2021/04/05 08:24:21;;;;;;;0.57;0.57;;;7.00;99.90;;;;;;5054488;28;20619;-79
2021/04/05 08:27:24;;;;;;;11.10;2.45;;;6.80;99.90;;;;;;5054631;28;20198;-77
2021/04/05 08:30:01;;;;;;;0.20;0.20;;;6.60;99.90;;;;;;5054567;28;20230;-77
2021/04/05 08:33:02;;;;;;;0.20;0.20;;;6.30;99.90;;;;;;5056857;28;20641;-76
2021/04/05 08:35:49;;;;;;;0.10;0.10;;;6.00;99.90;;;;;;5054405;28;20530;-76
2021/04/05 08:38:25;;;;;;;11.40;2.75;;;6.00;99.90;;;;;;5056002;28;20677;-77
2021/04/05 08:41:13;;;;;;;0.20;0.20;;;6.00;99.90;;;;;;5061178;28;20556;-80
2021/04/05 08:44:16;;;;;;;0.40;0.40;;;5.80;99.90;;;;;;5060050;28;20209;-76
2021/04/05 08:46:43;;;;;;;4.78;1.40;;;5.70;99.90;;;;;;5057129;28;20202;-75
2021/04/05 08:49:17;;;;;;;2.13;0.65;;;5.70;99.90;;;;;;5055316;28;20242;-78
2021/04/05 08:51:46;;;;;;;0.10;0.10;;;5.60;99.90;;;;;;5053349;28;20173;-76
2021/04/05 08:54:18;;;;;;;0.15;0.15;;;5.70;99.90;;;;;;5057927;28;20179;-76
2021/04/05 08:56:52;;;;;;;0.82;0.82;;;5.70;99.90;;;;;;5055391;28;20188;-75
2021/04/05 08:59:28;;;;;;;0.32;0.32;;;5.70;99.90;;;;;;5054112;28;20171;-75
2021/04/05 09:02:04;;;;;;;1.60;1.08;;;5.60;99.90;;;;;;5053451;28;20296;-76
2021/04/05 09:04:31;;;;;;;0.10;0.10;;;5.60;99.90;;;;;;5052577;28;20197;-76
2021/04/05 09:07:09;;;;;;;0.30;0.30;;;5.60;99.90;;;;;;5053589;28;20203;-75
2021/04/05 09:09:36;;;;;;;0.20;0.20;;;5.70;99.90;;;;;;5053676;28;20177;-76
2021/04/05 09:12:04;;;;;;;0.20;0.20;;;5.70;99.90;;;;;;5053992;28;20163;-76
2021/04/05 09:14:38;;;;;;;11.25;2.05;;;5.80;99.90;;;;;;5053331;28;20171;-77
2021/04/05 09:17:13;;;;;;;0.50;0.50;;;5.80;99.90;;;;;;5053891;28;20203;-79
2021/04/05 09:20:15;;;;;;;0.88;0.88;;;5.80;99.90;;;;;;5053751;28;20622;-76
2021/04/05 09:23:13;;;;;;;1.85;1.60;;;5.70;99.90;;;;;;5055885;28;20174;-77
2021/04/05 09:25:43;;;;;;;0.20;0.20;;;5.40;99.90;;;;;;5049291;28;20527;-76
2021/04/05 09:28:24;;;;;;;0.50;0.50;;;5.30;99.90;;;;;;5053211;28;20206;-76
2021/04/05 09:31:14;;;;;;;5.13;0.90;;;5.30;99.90;;;;;;5053724;28;20612;-75
2021/04/05 09:34:11;;;;;;;0.85;0.73;;;5.60;99.90;;;;;;5056174;28;20167;-76
2021/04/05 09:37:06;;;;;;;0.30;0.30;;;5.80;99.90;;;;;;5046328;28;20207;-75
2021/04/05 09:39:53;;;;;;;0.20;0.20;;;5.90;99.90;;;;;;5058092;28;20265;-75
2021/04/05 09:42:27;;;;;;;0.52;0.47;;;6.00;99.90;;;;;;5063047;28;20308;-77
2021/04/05 09:45:15;;;;;;;3.83;0.90;;;6.00;99.90;;;;;;5052492;28;20610;-77
2021/04/05 09:47:52;;;;;;;4.38;0.45;;;5.90;99.90;;;;;;5050549;28;20217;-76
2021/04/05 09:50:24;;;;;;;0.22;0.22;;;5.90;99.90;;;;;;5051888;28;20248;-77
2021/04/05 09:53:20;;;;;;;0.20;0.20;;;5.80;99.90;;;;;;5052616;28;20190;-76
2021/04/05 09:55:52;;;;;;;0.63;0.63;;;5.90;99.90;;;;;;5051983;28;20201;-76
2021/04/05 09:58:25;;;;;;;0.70;0.70;;;6.10;99.90;;;;;;5049998;28;20167;-77
2021/04/05 10:01:03;;;;;;;3.58;1.83;;;6.40;99.90;;;;;;5050269;28;20250;-77
2021/04/05 10:03:29;;;;;;;3.58;0.63;;;6.70;99.90;;;;;;5051103;28;20167;-76
2021/04/05 10:05:57;;;;;;;2.20;1.30;;;7.00;99.90;;;;;;5048781;28;20190;-76
2021/04/05 10:08:26;;;;;;;0.20;0.20;;;7.20;99.90;;;;;;5060686;28;20186;-78
2021/04/05 10:10:54;;;;;;;0.38;0.38;;;7.40;99.90;;;;;;5053262;28;20139;-76
2021/04/05 10:13:22;;;;;;;11.45;1.23;;;7.20;99.90;;;;;;5070614;28;20181;-77
2021/04/05 10:15:52;;;;;;;0.20;0.20;;;7.10;99.90;;;;;;5071258;28;20252;-77
2021/04/05 10:18:20;;;;;;;0.30;0.30;;;7.00;99.90;;;;;;5071587;28;20154;-76
2021/04/05 10:20:53;;;;;;;2.00;1.08;;;6.50;99.90;;;;;;5072004;28;20230;-76
2021/04/05 10:23:31;;;;;;;0.20;0.20;;;6.00;99.90;;;;;;5071264;28;20169;-77
2021/04/05 10:26:03;;;;;;;0.25;0.25;;;5.50;99.90;;;;;;5071611;28;20186;-77
2021/04/05 10:28:30;;;;;;;0.20;0.20;;;5.40;99.90;;;;;;5071263;28;20252;-78
2021/04/05 10:31:02;;;;;;;1.00;0.98;;;5.50;99.90;;;;;;5071222;28;20226;-77
2021/04/05 10:33:32;;;;;;;0.10;0.10;;;6.10;99.90;;;;;;5071231;28;20167;-79
2021/04/05 10:36:12;;;;;;;0.35;0.35;;;6.30;99.90;;;;;;5057266;28;20214;-78
2021/04/05 10:38:38;;;;;;;0.85;0.75;;;6.70;99.90;;;;;;5051167;28;20167;-78
2021/04/05 10:41:10;;;;;;;0.20;0.20;;;7.00;99.90;;;;;;5051777;28;20618;-77
2021/04/05 10:43:57;;;;;;;0.30;0.30;;;7.10;99.90;;;;;;5049964;28;20595;-76
2021/04/05 10:46:27;;;;;;;0.13;0.13;;;6.90;99.90;;;;;;5050311;28;20205;-76
2021/04/05 10:49:07;;;;;;;0.95;0.93;;;6.90;99.90;;;;;;5052137;28;20175;-77
2021/04/05 10:51:45;;;;;;;2.67;1.40;;;6.60;99.90;;;;;;5051899;28;20210;-76
2021/04/05 10:54:14;;;;;;;0.30;0.30;;;6.70;99.90;;;;;;5055238;28;20561;-76
2021/04/05 10:56:50;;;;;;;0.10;0.10;;;6.80;99.90;;;;;;5055978;28;20199;-76
2021/04/05 10:59:15;;;;;;;0.43;0.43;;;6.60;99.90;;;;;;5055934;28;20175;-75
2021/04/05 11:01:48;;;;;;;0.25;0.25;;;6.60;99.90;;;;;;5055711;28;20166;-75
2021/04/05 11:04:16;;;;;;;0.15;0.13;;;6.60;99.90;;;;;;5038012;28;20518;-75
2021/04/05 11:06:42;;;;;;;0.70;0.43;;;6.60;99.90;;;;;;5055638;28;20199;-76
2021/04/05 11:09:09;;;;;;;0.85;0.57;;;6.30;99.90;;;;;;5055857;28;20572;-76
2021/04/05 11:11:38;;;;;;;0.10;0.10;;;6.00;99.90;;;;;;5055898;28;20234;-76
2021/04/05 11:14:14;;;;;;;0.20;0.20;;;6.10;99.90;;;;;;5054445;28;20217;-77
2021/04/05 11:17:01;;;;;;;0.20;0.20;;;6.40;99.90;;;;;;5054292;28;20191;-76
2021/04/05 11:19:52;;;;;;;0.77;0.57;;;6.40;99.90;;;;;;5055157;28;20643;-76
2021/04/05 11:22:22;;;;;;;0.20;0.20;;;6.60;99.90;;;;;;5055536;28;20171;-77
2021/04/05 11:25:03;;;;;;;0.20;0.20;;;6.90;99.90;;;;;;5055249;28;20175;-78
2021/04/05 11:27:31;;;;;;;0.32;0.32;;;7.10;99.90;;;;;;5055160;28;20207;-77
2021/04/05 11:30:02;;;;;;;2.60;1.30;;;7.30;99.90;;;;;;5063698;28;20231;-77
2021/04/05 11:32:31;;;;;;;0.28;0.28;;;7.40;99.90;;;;;;5059767;28;20642;-77
2021/04/05 11:34:58;;;;;;;1.58;1.48;;;7.20;99.90;;;;;;5061322;28;20167;-77
2021/04/05 11:37:30;;;;;;;0.10;0.10;;;7.20;99.90;;;;;;5068794;28;20206;-77
2021/04/05 11:40:03;;;;;;;0.20;0.20;;;7.10;99.90;;;;;;5063038;28;20159;-77
2021/04/05 11:42:42;;;;;;;0.20;0.20;;;7.20;99.90;;;;;;5063499;28;20163;-76
2021/04/05 11:45:09;;;;;;;1.38;1.00;;;7.40;99.90;;;;;;5057569;28;20167;-78
2021/04/05 11:47:38;;;;;;;0.28;0.28;;;7.60;99.90;;;;;;5055121;28;20198;-77
2021/04/05 11:50:18;;;;;;;0.52;0.52;;;7.80;99.90;;;;;;5055108;28;20630;-76
2021/04/05 11:52:49;;;;;;;0.30;0.30;;;7.50;99.90;;;;;;5053733;28;20225;-77
2021/04/05 11:55:21;;;;;;;0.73;0.73;;;7.50;99.90;;;;;;5055075;28;20229;-77
2021/04/05 11:57:56;;;;;;;0.20;0.20;;;7.50;99.90;;;;;;5054918;28;20159;-78
2021/04/05 12:00:29;;;;;;;1.48;1.05;;;7.50;99.90;;;;;;5055673;28;20201;-77
2021/04/05 12:03:05;;;;;;;47.40;1.95;;;7.50;99.90;;;;;;5049800;28;20172;-76
2021/04/05 12:05:34;;;;;;;2.90;1.67;;;7.10;99.90;;;;;;5034330;28;20270;-75
2021/04/05 12:08:20;;;;;;;0.40;0.40;;;6.60;99.90;;;;;;5034201;28;20293;-77
2021/04/05 12:10:50;;;;;;;10.80;1.23;;;6.80;99.90;;;;;;5034868;28;20247;-77
2021/04/05 12:13:43;;;;;;;0.47;0.47;;;6.70;99.90;;;;;;5034111;28;20167;-77
2021/04/05 12:16:11;;;;;;;0.20;0.20;;;6.70;99.90;;;;;;5034334;28;20203;-77
2021/04/05 12:18:37;;;;;;;0.50;0.50;;;6.90;99.90;;;;;;5052864;28;20993;-77
2021/04/05 12:21:10;;;;;;;1.20;1.20;;;6.80;99.90;;;;;;5051761;28;20179;-77
2021/04/05 12:23:36;;;;;;;0.20;0.20;;;6.80;99.90;;;;;;5054815;28;20225;-78
2021/04/05 12:26:03;;;;;;;0.20;0.20;;;6.80;99.90;;;;;;5055070;28;20240;-78
2021/04/05 12:28:47;;;;;;;2.55;1.35;;;7.00;99.90;;;;;;5062029;28;20492;-77
2021/04/05 12:31:13;;;;;;;0.28;0.28;;;7.30;99.90;;;;;;5066178;28;20628;-77
2021/04/05 12:33:40;;;;;;;1.05;1.00;;;7.70;99.90;;;;;;5053816;28;20171;-78
2021/04/05 12:36:07;;;;;;;0.43;0.43;;;8.00;99.90;;;;;;5052348;28;20241;-76
2021/04/05 12:38:39;;;;;;;0.20;0.20;;;7.90;99.90;;;;;;5050559;28;20179;-78
2021/04/05 12:41:11;;;;;;;0.15;0.15;;;7.80;99.90;;;;;;5054013;28;20159;-76
2021/04/05 12:43:39;;;;;;;1.38;0.77;;;7.40;99.90;;;;;;5053945;28;20246;-77
2021/04/05 12:46:15;;;;;;;0.20;0.20;;;7.10;99.90;;;;;;5053772;28;20234;-78
2021/04/05 12:48:43;;;;;;;0.43;0.43;;;7.00;99.90;;;;;;5053035;28;20171;-77
2021/04/05 12:51:10;;;;;;;0.20;0.20;;;6.80;99.90;;;;;;5053938;28;20151;-77
2021/04/05 12:53:38;;;;;;;0.10;0.10;;;6.90;99.90;;;;;;5054946;28;20173;-76
2021/04/05 12:56:14;;;;;;;1.05;0.95;;;6.70;99.90;;;;;;5055279;28;20187;-77
2021/04/05 12:58:43;;;;;;;1.05;1.05;;;6.90;99.90;;;;;;5052532;28;20211;-76
2021/04/05 13:01:08;;;;;;;0.20;0.20;;;7.30;99.90;;;;;;5053561;28;20155;-76
2021/04/05 13:03:42;;;;;;;0.10;0.10;;;7.60;99.80;;;;;;5053582;28;20502;-76
2021/04/05 13:06:10;;;;;;;0.20;0.20;;;7.40;98.90;;;;;;5052192;28;20712;-76
2021/04/05 13:09:06;;;;;;;0.40;0.40;;;7.40;97.80;;;;;;5050255;28;20167;-76
2021/04/05 13:11:37;;;;;;;0.57;0.57;;;7.60;97.90;;;;;;5031747;28;20172;-78
2021/04/05 13:14:08;;;;;;;0.40;0.40;;;7.70;95.50;;;;;;5033719;28;20259;-78
2021/04/05 13:17:18;;;;;;;0.43;0.30;;;7.50;95.10;;;;;;5038620;28;20183;-76
2021/04/05 13:19:55;;;;;;;0.30;0.30;;;6.90;94.20;;;;;;5030901;28;20681;-77
2021/04/05 13:22:24;;;;;;;0.30;0.30;;;6.50;95.80;;;;;;5036361;28;20167;-77
2021/04/05 13:25:15;;;;;;;0.20;0.20;;;6.50;96.80;;;;;;5035023;28;20615;-76
2021/04/05 13:27:47;;;;;;;0.30;0.30;;;6.40;96.40;;;;;;5036146;28;20226;-76
2021/04/05 13:30:14;;;;;;;0.57;0.57;;;6.30;97.40;;;;;;5035147;28;20211;-77
2021/04/05 13:32:43;;;;;;;0.22;0.22;;;6.30;97.20;;;;;;5038802;28;20255;-77
2021/04/05 13:35:18;;;;;;;0.25;0.25;;;6.20;95.60;;;;;;5056274;28;20159;-77
2021/04/05 13:37:57;;;;;;;0.20;0.20;;;6.40;95.80;;;;;;5055316;28;20566;-77
2021/04/05 13:40:27;;;;;;;0.20;0.20;;;6.60;95.10;;;;;;5055968;28;20171;-75